sensor_id;sensor_type;location;lat;lon;timestamp;P1;durP1;ratioP1;P2;durP2;ratioP2
40653;SDS011;26344;45.532;9.232;2023-02-19T00:01:37;21.10;;;11.50;;
40653;SDS011;26344;45.532;9.232;2023-02-19T00:04:05;17.42;;;11.35;;
40653;SDS011;26344;45.532;9.232;2023-02-19T00:08:59;17.73;;;11.05;;
40653;SDS011;26344;45.532;9.232;2023-02-19T00:11:27;16.38;;;12.02;;
40653;SDS011;26344;45.532;9.232;2023-02-19T00:13:54;20.80;;;12.43;;
40653;SDS011;26344;45.532;9.232;2023-02-19T00:18:47;18.45;;;11.40;;
40653;SDS011;26344;45.532;9.232;2023-02-19T00:21:13;18.70;;;11.07;;
40653;SDS011;26344;45.532;9.232;2023-02-19T00:23:39;16.77;;;11.27;;
40653;SDS011;26344;45.532;9.232;2023-02-19T00:26:06;20.83;;;12.10;;
40653;SDS011;26344;45.532;9.232;2023-02-19T00:28:33;17.48;;;11.85;;
40653;SDS011;26344;45.532;9.232;2023-02-19T00:31:05;14.15;;;11.05;;
40653;SDS011;26344;45.532;9.232;2023-02-19T00:33:31;20.88;;;12.45;;
40653;SDS011;26344;45.532;9.232;2023-02-19T00:36:01;15.48;;;11.32;;
40653;SDS011;26344;45.532;9.232;2023-02-19T00:38:27;17.38;;;11.50;;
40653;SDS011;26344;45.532;9.232;2023-02-19T00:40:53;18.65;;;11.73;;
40653;SDS011;26344;45.532;9.232;2023-02-19T00:43:19;16.20;;;11.50;;
40653;SDS011;26344;45.532;9.232;2023-02-19T00:45:45;18.70;;;11.70;;
40653;SDS011;26344;45.532;9.232;2023-02-19T00:48:11;21.48;;;12.38;;
40653;SDS011;26344;45.532;9.232;2023-02-19T00:50:37;17.92;;;12.40;;
40653;SDS011;26344;45.532;9.232;2023-02-19T00:53:03;23.05;;;12.57;;
40653;SDS011;26344;45.532;9.232;2023-02-19T00:55:29;20.55;;;12.02;;
40653;SDS011;26344;45.532;9.232;2023-02-19T00:57:55;17.25;;;11.82;;
40653;SDS011;26344;45.532;9.232;2023-02-19T01:00:21;16.00;;;11.82;;
40653;SDS011;26344;45.532;9.232;2023-02-19T01:02:47;17.40;;;12.15;;
40653;SDS011;26344;45.532;9.232;2023-02-19T01:05:13;19.08;;;12.68;;
40653;SDS011;26344;45.532;9.232;2023-02-19T01:07:39;19.35;;;11.35;;
40653;SDS011;26344;45.532;9.232;2023-02-19T01:10:05;18.48;;;12.57;;
40653;SDS011;26344;45.532;9.232;2023-02-19T01:12:31;16.88;;;11.55;;
40653;SDS011;26344;45.532;9.232;2023-02-19T01:14:57;16.95;;;11.43;;
40653;SDS011;26344;45.532;9.232;2023-02-19T01:17:23;18.85;;;12.00;;
40653;SDS011;26344;45.532;9.232;2023-02-19T01:19:49;22.30;;;11.50;;
40653;SDS011;26344;45.532;9.232;2023-02-19T01:22:15;17.67;;;12.15;;
40653;SDS011;26344;45.532;9.232;2023-02-19T01:24:41;16.40;;;11.30;;
40653;SDS011;26344;45.532;9.232;2023-02-19T01:27:07;18.55;;;12.52;;
40653;SDS011;26344;45.532;9.232;2023-02-19T01:29:33;19.02;;;12.38;;
40653;SDS011;26344;45.532;9.232;2023-02-19T01:31:59;17.05;;;11.82;;
40653;SDS011;26344;45.532;9.232;2023-02-19T01:34:25;20.50;;;12.48;;
40653;SDS011;26344;45.532;9.232;2023-02-19T01:36:55;20.27;;;12.83;;
40653;SDS011;26344;45.532;9.232;2023-02-19T01:39:21;17.35;;;12.20;;
40653;SDS011;26344;45.532;9.232;2023-02-19T01:41:47;17.77;;;12.88;;
40653;SDS011;26344;45.532;9.232;2023-02-19T01:46:40;17.02;;;11.93;;
40653;SDS011;26344;45.532;9.232;2023-02-19T01:49:17;17.70;;;11.50;;
40653;SDS011;26344;45.532;9.232;2023-02-19T01:51:53;17.42;;;12.00;;
40653;SDS011;26344;45.532;9.232;2023-02-19T01:54:25;17.02;;;12.15;;
40653;SDS011;26344;45.532;9.232;2023-02-19T01:56:51;18.05;;;12.18;;
40653;SDS011;26344;45.532;9.232;2023-02-19T01:59:19;16.45;;;11.63;;
40653;SDS011;26344;45.532;9.232;2023-02-19T02:01:45;19.92;;;12.23;;
40653;SDS011;26344;45.532;9.232;2023-02-19T02:04:11;19.65;;;12.05;;
40653;SDS011;26344;45.532;9.232;2023-02-19T02:06:40;15.85;;;12.35;;
40653;SDS011;26344;45.532;9.232;2023-02-19T02:09:07;19.20;;;12.18;;
40653;SDS011;26344;45.532;9.232;2023-02-19T02:11:52;15.55;;;11.35;;
40653;SDS011;26344;45.532;9.232;2023-02-19T02:14:20;17.90;;;11.90;;
40653;SDS011;26344;45.532;9.232;2023-02-19T02:25:04;15.93;;;11.38;;
40653;SDS011;26344;45.532;9.232;2023-02-19T02:31:10;16.17;;;11.98;;
40653;SDS011;26344;45.532;9.232;2023-02-19T02:33:41;17.45;;;11.38;;
40653;SDS011;26344;45.532;9.232;2023-02-19T02:36:11;15.85;;;11.27;;
40653;SDS011;26344;45.532;9.232;2023-02-19T02:38:40;16.42;;;11.88;;
40653;SDS011;26344;45.532;9.232;2023-02-19T02:41:07;15.43;;;11.43;;
40653;SDS011;26344;45.532;9.232;2023-02-19T02:43:33;14.05;;;10.85;;
40653;SDS011;26344;45.532;9.232;2023-02-19T02:45:59;18.90;;;12.18;;
40653;SDS011;26344;45.532;9.232;2023-02-19T02:48:32;15.68;;;11.82;;
40653;SDS011;26344;45.532;9.232;2023-02-19T02:56:29;16.98;;;11.70;;
40653;SDS011;26344;45.532;9.232;2023-02-19T02:58:55;18.27;;;12.70;;
40653;SDS011;26344;45.532;9.232;2023-02-19T03:01:24;18.80;;;12.70;;
40653;SDS011;26344;45.532;9.232;2023-02-19T03:06:49;18.90;;;11.93;;
40653;SDS011;26344;45.532;9.232;2023-02-19T03:09:31;19.70;;;12.70;;
40653;SDS011;26344;45.532;9.232;2023-02-19T03:12:04;16.88;;;12.35;;
40653;SDS011;26344;45.532;9.232;2023-02-19T03:14:50;16.88;;;12.90;;
40653;SDS011;26344;45.532;9.232;2023-02-19T03:18:10;20.58;;;12.95;;
40653;SDS011;26344;45.532;9.232;2023-02-19T03:20:49;17.77;;;13.02;;
40653;SDS011;26344;45.532;9.232;2023-02-19T03:23:16;17.10;;;13.00;;
40653;SDS011;26344;45.532;9.232;2023-02-19T03:25:43;20.02;;;12.80;;
40653;SDS011;26344;45.532;9.232;2023-02-19T03:28:28;19.05;;;12.90;;
40653;SDS011;26344;45.532;9.232;2023-02-19T03:31:16;22.42;;;13.73;;
40653;SDS011;26344;45.532;9.232;2023-02-19T03:33:43;19.88;;;14.00;;
40653;SDS011;26344;45.532;9.232;2023-02-19T03:36:11;19.60;;;13.23;;
40653;SDS011;26344;45.532;9.232;2023-02-19T03:43:39;20.05;;;13.55;;
40653;SDS011;26344;45.532;9.232;2023-02-19T03:46:16;21.60;;;12.95;;
40653;SDS011;26344;45.532;9.232;2023-02-19T03:48:49;20.67;;;14.00;;
40653;SDS011;26344;45.532;9.232;2023-02-19T03:56:24;20.58;;;13.68;;
40653;SDS011;26344;45.532;9.232;2023-02-19T03:59:11;20.60;;;12.93;;
40653;SDS011;26344;45.532;9.232;2023-02-19T04:01:53;24.20;;;14.40;;
40653;SDS011;26344;45.532;9.232;2023-02-19T04:04:33;20.83;;;14.27;;
40653;SDS011;26344;45.532;9.232;2023-02-19T04:06:59;19.27;;;14.15;;
40653;SDS011;26344;45.532;9.232;2023-02-19T04:09:27;21.65;;;14.35;;
40653;SDS011;26344;45.532;9.232;2023-02-19T04:11:54;22.10;;;15.40;;
40653;SDS011;26344;45.532;9.232;2023-02-19T04:14:26;21.75;;;15.10;;
40653;SDS011;26344;45.532;9.232;2023-02-19T04:16:56;23.77;;;16.48;;
40653;SDS011;26344;45.532;9.232;2023-02-19T04:19:24;22.60;;;16.67;;
40653;SDS011;26344;45.532;9.232;2023-02-19T04:21:50;22.15;;;15.98;;
40653;SDS011;26344;45.532;9.232;2023-02-19T04:24:25;24.63;;;16.70;;
40653;SDS011;26344;45.532;9.232;2023-02-19T04:26:52;26.33;;;17.23;;
40653;SDS011;26344;45.532;9.232;2023-02-19T04:29:19;22.88;;;17.17;;
40653;SDS011;26344;45.532;9.232;2023-02-19T04:31:45;25.67;;;16.25;;
40653;SDS011;26344;45.532;9.232;2023-02-19T04:34:11;27.02;;;15.90;;
40653;SDS011;26344;45.532;9.232;2023-02-19T04:36:37;23.25;;;17.20;;
40653;SDS011;26344;45.532;9.232;2023-02-19T04:39:04;22.20;;;16.00;;
40653;SDS011;26344;45.532;9.232;2023-02-19T04:41:30;24.63;;;16.40;;
40653;SDS011;26344;45.532;9.232;2023-02-19T04:43:56;25.98;;;16.83;;
40653;SDS011;26344;45.532;9.232;2023-02-19T04:46:22;23.73;;;16.40;;
40653;SDS011;26344;45.532;9.232;2023-02-19T04:48:48;23.67;;;16.52;;
40653;SDS011;26344;45.532;9.232;2023-02-19T04:51:14;25.15;;;16.75;;
40653;SDS011;26344;45.532;9.232;2023-02-19T04:53:40;21.20;;;16.38;;
40653;SDS011;26344;45.532;9.232;2023-02-19T04:56:11;24.27;;;15.52;;
40653;SDS011;26344;45.532;9.232;2023-02-19T04:58:37;23.17;;;15.77;;
40653;SDS011;26344;45.532;9.232;2023-02-19T05:01:03;23.30;;;16.40;;
40653;SDS011;26344;45.532;9.232;2023-02-19T05:03:29;21.35;;;16.15;;
40653;SDS011;26344;45.532;9.232;2023-02-19T05:05:55;20.75;;;15.48;;
40653;SDS011;26344;45.532;9.232;2023-02-19T05:08:21;24.73;;;15.95;;
40653;SDS011;26344;45.532;9.232;2023-02-19T05:10:47;22.55;;;17.02;;
40653;SDS011;26344;45.532;9.232;2023-02-19T05:13:13;24.63;;;17.58;;
40653;SDS011;26344;45.532;9.232;2023-02-19T05:15:39;26.10;;;16.75;;
40653;SDS011;26344;45.532;9.232;2023-02-19T05:18:05;24.60;;;17.50;;
40653;SDS011;26344;45.532;9.232;2023-02-19T05:20:31;25.83;;;17.38;;
40653;SDS011;26344;45.532;9.232;2023-02-19T05:22:57;25.67;;;16.90;;
40653;SDS011;26344;45.532;9.232;2023-02-19T05:25:23;22.88;;;16.52;;
40653;SDS011;26344;45.532;9.232;2023-02-19T05:27:49;24.83;;;16.73;;
40653;SDS011;26344;45.532;9.232;2023-02-19T05:30:35;25.85;;;17.13;;
40653;SDS011;26344;45.532;9.232;2023-02-19T05:33:01;24.75;;;17.23;;
40653;SDS011;26344;45.532;9.232;2023-02-19T05:35:27;27.42;;;17.63;;
40653;SDS011;26344;45.532;9.232;2023-02-19T05:37:53;23.95;;;17.13;;
40653;SDS011;26344;45.532;9.232;2023-02-19T05:40:19;29.67;;;18.05;;
40653;SDS011;26344;45.532;9.232;2023-02-19T05:42:45;25.00;;;18.25;;
40653;SDS011;26344;45.532;9.232;2023-02-19T05:45:11;23.05;;;17.17;;
40653;SDS011;26344;45.532;9.232;2023-02-19T05:47:37;27.35;;;18.38;;
40653;SDS011;26344;45.532;9.232;2023-02-19T05:50:03;29.23;;;17.73;;
40653;SDS011;26344;45.532;9.232;2023-02-19T05:52:29;27.83;;;18.42;;
40653;SDS011;26344;45.532;9.232;2023-02-19T05:54:55;30.38;;;18.20;;
40653;SDS011;26344;45.532;9.232;2023-02-19T05:57:21;26.73;;;18.15;;
40653;SDS011;26344;45.532;9.232;2023-02-19T05:59:47;27.90;;;18.83;;
40653;SDS011;26344;45.532;9.232;2023-02-19T06:02:13;24.38;;;17.73;;
40653;SDS011;26344;45.532;9.232;2023-02-19T06:04:39;30.42;;;18.67;;
40653;SDS011;26344;45.532;9.232;2023-02-19T06:07:05;27.35;;;17.52;;
40653;SDS011;26344;45.532;9.232;2023-02-19T06:09:34;29.45;;;18.17;;
40653;SDS011;26344;45.532;9.232;2023-02-19T06:12:00;27.23;;;18.25;;
40653;SDS011;26344;45.532;9.232;2023-02-19T06:14:26;27.38;;;18.30;;
40653;SDS011;26344;45.532;9.232;2023-02-19T06:16:54;26.38;;;17.05;;
40653;SDS011;26344;45.532;9.232;2023-02-19T06:19:20;22.77;;;16.73;;
40653;SDS011;26344;45.532;9.232;2023-02-19T06:21:48;24.48;;;17.08;;
40653;SDS011;26344;45.532;9.232;2023-02-19T06:24:14;27.10;;;17.63;;
40653;SDS011;26344;45.532;9.232;2023-02-19T06:26:40;29.38;;;17.20;;
40653;SDS011;26344;45.532;9.232;2023-02-19T06:29:06;28.38;;;17.48;;
40653;SDS011;26344;45.532;9.232;2023-02-19T06:31:32;25.70;;;17.52;;
40653;SDS011;26344;45.532;9.232;2023-02-19T06:33:58;24.90;;;17.73;;
40653;SDS011;26344;45.532;9.232;2023-02-19T06:36:27;23.97;;;16.43;;
40653;SDS011;26344;45.532;9.232;2023-02-19T06:38:53;25.73;;;17.17;;
40653;SDS011;26344;45.532;9.232;2023-02-19T06:41:23;27.10;;;17.42;;
40653;SDS011;26344;45.532;9.232;2023-02-19T06:43:49;26.00;;;17.30;;
40653;SDS011;26344;45.532;9.232;2023-02-19T06:46:15;25.23;;;17.15;;
40653;SDS011;26344;45.532;9.232;2023-02-19T06:48:42;25.23;;;17.35;;
40653;SDS011;26344;45.532;9.232;2023-02-19T06:51:12;25.05;;;16.85;;
40653;SDS011;26344;45.532;9.232;2023-02-19T06:53:38;28.73;;;17.83;;
40653;SDS011;26344;45.532;9.232;2023-02-19T06:56:05;22.20;;;17.00;;
40653;SDS011;26344;45.532;9.232;2023-02-19T06:58:32;25.67;;;17.23;;
40653;SDS011;26344;45.532;9.232;2023-02-19T07:00:58;23.63;;;16.77;;
40653;SDS011;26344;45.532;9.232;2023-02-19T07:03:24;24.92;;;17.20;;
40653;SDS011;26344;45.532;9.232;2023-02-19T07:05:50;24.42;;;17.23;;
40653;SDS011;26344;45.532;9.232;2023-02-19T07:08:16;25.80;;;17.63;;
40653;SDS011;26344;45.532;9.232;2023-02-19T07:10:43;22.98;;;17.00;;
40653;SDS011;26344;45.532;9.232;2023-02-19T07:13:09;25.15;;;16.58;;
40653;SDS011;26344;45.532;9.232;2023-02-19T07:15:35;24.25;;;17.23;;
40653;SDS011;26344;45.532;9.232;2023-02-19T07:18:01;21.63;;;16.45;;
40653;SDS011;26344;45.532;9.232;2023-02-19T07:20:29;27.08;;;17.17;;
40653;SDS011;26344;45.532;9.232;2023-02-19T07:22:55;29.30;;;17.95;;
40653;SDS011;26344;45.532;9.232;2023-02-19T07:25:21;24.85;;;17.50;;
40653;SDS011;26344;45.532;9.232;2023-02-19T07:27:47;23.60;;;17.25;;
40653;SDS011;26344;45.532;9.232;2023-02-19T07:30:13;23.33;;;17.23;;
40653;SDS011;26344;45.532;9.232;2023-02-19T07:32:40;28.48;;;18.75;;
40653;SDS011;26344;45.532;9.232;2023-02-19T07:35:06;29.50;;;19.15;;
40653;SDS011;26344;45.532;9.232;2023-02-19T07:37:32;28.52;;;19.08;;
40653;SDS011;26344;45.532;9.232;2023-02-19T07:39:58;26.85;;;18.88;;
40653;SDS011;26344;45.532;9.232;2023-02-19T07:42:24;28.02;;;18.98;;
40653;SDS011;26344;45.532;9.232;2023-02-19T07:44:50;24.35;;;18.70;;
40653;SDS011;26344;45.532;9.232;2023-02-19T07:47:16;26.63;;;18.55;;
40653;SDS011;26344;45.532;9.232;2023-02-19T07:49:42;29.25;;;19.17;;
40653;SDS011;26344;45.532;9.232;2023-02-19T07:52:08;28.08;;;19.30;;
40653;SDS011;26344;45.532;9.232;2023-02-19T07:54:34;29.65;;;19.42;;
40653;SDS011;26344;45.532;9.232;2023-02-19T07:57:00;26.92;;;18.58;;
40653;SDS011;26344;45.532;9.232;2023-02-19T07:59:26;27.40;;;19.45;;
40653;SDS011;26344;45.532;9.232;2023-02-19T08:01:52;31.27;;;20.15;;
40653;SDS011;26344;45.532;9.232;2023-02-19T08:04:36;29.77;;;19.60;;
40653;SDS011;26344;45.532;9.232;2023-02-19T08:07:02;34.90;;;20.00;;
40653;SDS011;26344;45.532;9.232;2023-02-19T08:09:29;29.10;;;20.45;;
40653;SDS011;26344;45.532;9.232;2023-02-19T08:11:55;31.80;;;21.60;;
40653;SDS011;26344;45.532;9.232;2023-02-19T08:14:39;35.72;;;21.52;;
40653;SDS011;26344;45.532;9.232;2023-02-19T08:17:05;27.92;;;20.60;;
40653;SDS011;26344;45.532;9.232;2023-02-19T08:19:31;31.23;;;20.10;;
40653;SDS011;26344;45.532;9.232;2023-02-19T08:21:57;30.98;;;21.60;;
40653;SDS011;26344;45.532;9.232;2023-02-19T08:24:23;31.42;;;20.98;;
40653;SDS011;26344;45.532;9.232;2023-02-19T08:26:49;31.10;;;22.25;;
40653;SDS011;26344;45.532;9.232;2023-02-19T08:29:15;31.83;;;21.77;;
40653;SDS011;26344;45.532;9.232;2023-02-19T08:31:41;31.80;;;21.58;;
40653;SDS011;26344;45.532;9.232;2023-02-19T08:34:07;33.75;;;24.20;;
40653;SDS011;26344;45.532;9.232;2023-02-19T08:36:33;34.78;;;23.45;;
40653;SDS011;26344;45.532;9.232;2023-02-19T08:38:59;38.85;;;25.10;;
40653;SDS011;26344;45.532;9.232;2023-02-19T08:41:25;35.40;;;24.70;;
40653;SDS011;26344;45.532;9.232;2023-02-19T08:43:52;45.08;;;24.60;;
40653;SDS011;26344;45.532;9.232;2023-02-19T08:46:18;35.80;;;23.90;;
40653;SDS011;26344;45.532;9.232;2023-02-19T08:48:44;33.80;;;24.17;;
40653;SDS011;26344;45.532;9.232;2023-02-19T08:51:10;38.55;;;25.33;;
40653;SDS011;26344;45.532;9.232;2023-02-19T08:53:37;37.08;;;25.48;;
40653;SDS011;26344;45.532;9.232;2023-02-19T08:56:14;37.17;;;25.90;;
40653;SDS011;26344;45.532;9.232;2023-02-19T08:58:40;43.58;;;27.98;;
40653;SDS011;26344;45.532;9.232;2023-02-19T09:01:07;36.20;;;26.20;;
40653;SDS011;26344;45.532;9.232;2023-02-19T09:03:33;44.33;;;27.05;;
40653;SDS011;26344;45.532;9.232;2023-02-19T09:05:59;39.90;;;25.58;;
40653;SDS011;26344;45.532;9.232;2023-02-19T09:08:25;37.22;;;25.45;;
40653;SDS011;26344;45.532;9.232;2023-02-19T09:11:01;34.28;;;25.08;;
40653;SDS011;26344;45.532;9.232;2023-02-19T09:13:28;39.15;;;24.20;;
40653;SDS011;26344;45.532;9.232;2023-02-19T09:15:54;37.05;;;24.75;;
40653;SDS011;26344;45.532;9.232;2023-02-19T09:18:21;37.22;;;25.63;;
40653;SDS011;26344;45.532;9.232;2023-02-19T09:20:47;37.53;;;24.98;;
40653;SDS011;26344;45.532;9.232;2023-02-19T09:23:13;38.22;;;26.05;;
40653;SDS011;26344;45.532;9.232;2023-02-19T09:25:39;40.30;;;24.02;;
40653;SDS011;26344;45.532;9.232;2023-02-19T09:28:05;38.10;;;24.63;;
40653;SDS011;26344;45.532;9.232;2023-02-19T09:30:31;32.40;;;23.95;;
40653;SDS011;26344;45.532;9.232;2023-02-19T09:32:57;37.20;;;25.58;;
40653;SDS011;26344;45.532;9.232;2023-02-19T09:35:23;35.20;;;24.48;;
40653;SDS011;26344;45.532;9.232;2023-02-19T09:37:49;37.65;;;25.25;;
40653;SDS011;26344;45.532;9.232;2023-02-19T09:40:15;36.70;;;25.17;;
40653;SDS011;26344;45.532;9.232;2023-02-19T09:42:45;35.63;;;25.25;;
40653;SDS011;26344;45.532;9.232;2023-02-19T09:45:16;37.05;;;24.42;;
40653;SDS011;26344;45.532;9.232;2023-02-19T09:47:43;37.03;;;25.23;;
40653;SDS011;26344;45.532;9.232;2023-02-19T09:50:11;39.47;;;26.02;;
40653;SDS011;26344;45.532;9.232;2023-02-19T09:52:49;37.33;;;25.48;;
40653;SDS011;26344;45.532;9.232;2023-02-19T09:55:18;38.33;;;25.05;;
40653;SDS011;26344;45.532;9.232;2023-02-19T09:57:45;36.13;;;25.17;;
40653;SDS011;26344;45.532;9.232;2023-02-19T10:02:37;36.78;;;24.83;;
40653;SDS011;26344;45.532;9.232;2023-02-19T10:05:13;35.38;;;25.67;;
40653;SDS011;26344;45.532;9.232;2023-02-19T10:07:40;34.65;;;23.52;;
40653;SDS011;26344;45.532;9.232;2023-02-19T10:12:37;33.53;;;21.00;;
40653;SDS011;26344;45.532;9.232;2023-02-19T10:15:09;34.30;;;21.08;;
40653;SDS011;26344;45.532;9.232;2023-02-19T10:17:36;30.00;;;20.48;;
40653;SDS011;26344;45.532;9.232;2023-02-19T10:20:02;27.20;;;19.17;;
40653;SDS011;26344;45.532;9.232;2023-02-19T10:22:29;30.17;;;18.27;;
40653;SDS011;26344;45.532;9.232;2023-02-19T10:24:55;28.02;;;17.33;;
40653;SDS011;26344;45.532;9.232;2023-02-19T10:27:22;23.90;;;16.00;;
40653;SDS011;26344;45.532;9.232;2023-02-19T10:29:53;21.30;;;15.03;;
40653;SDS011;26344;45.532;9.232;2023-02-19T10:32:20;30.98;;;16.10;;
40653;SDS011;26344;45.532;9.232;2023-02-19T10:37:32;18.88;;;13.00;;
40653;SDS011;26344;45.532;9.232;2023-02-19T10:39:59;18.52;;;11.98;;
40653;SDS011;26344;45.532;9.232;2023-02-19T10:42:25;20.38;;;12.80;;
40653;SDS011;26344;45.532;9.232;2023-02-19T10:44:52;18.13;;;11.77;;
40653;SDS011;26344;45.532;9.232;2023-02-19T10:47:21;13.88;;;10.25;;
40653;SDS011;26344;45.532;9.232;2023-02-19T10:49:48;16.50;;;9.23;;
40653;SDS011;26344;45.532;9.232;2023-02-19T10:52:23;13.18;;;8.63;;
40653;SDS011;26344;45.532;9.232;2023-02-19T10:54:51;15.13;;;10.13;;
40653;SDS011;26344;45.532;9.232;2023-02-19T10:59:58;14.65;;;9.50;;
40653;SDS011;26344;45.532;9.232;2023-02-19T11:02:26;18.00;;;10.35;;
40653;SDS011;26344;45.532;9.232;2023-02-19T11:05:03;17.52;;;10.27;;
40653;SDS011;26344;45.532;9.232;2023-02-19T11:07:30;15.23;;;10.20;;
40653;SDS011;26344;45.532;9.232;2023-02-19T11:09:56;14.73;;;9.98;;
40653;SDS011;26344;45.532;9.232;2023-02-19T11:12:26;13.98;;;9.32;;
40653;SDS011;26344;45.532;9.232;2023-02-19T11:14:52;11.55;;;8.50;;
40653;SDS011;26344;45.532;9.232;2023-02-19T11:24:52;13.02;;;8.25;;
40653;SDS011;26344;45.532;9.232;2023-02-19T11:27:20;12.32;;;8.32;;
40653;SDS011;26344;45.532;9.232;2023-02-19T11:29:46;14.50;;;9.05;;
40653;SDS011;26344;45.532;9.232;2023-02-19T11:32:20;12.00;;;8.57;;
40653;SDS011;26344;45.532;9.232;2023-02-19T11:34:46;11.00;;;8.13;;
40653;SDS011;26344;45.532;9.232;2023-02-19T11:37:13;11.77;;;8.30;;
40653;SDS011;26344;45.532;9.232;2023-02-19T11:39:40;10.07;;;7.90;;
40653;SDS011;26344;45.532;9.232;2023-02-19T11:45:06;11.38;;;8.00;;
40653;SDS011;26344;45.532;9.232;2023-02-19T11:50:33;10.75;;;8.30;;
40653;SDS011;26344;45.532;9.232;2023-02-19T11:58:46;11.38;;;8.25;;
40653;SDS011;26344;45.532;9.232;2023-02-19T12:04:19;12.48;;;8.00;;
40653;SDS011;26344;45.532;9.232;2023-02-19T12:25:48;10.80;;;7.47;;
40653;SDS011;26344;45.532;9.232;2023-02-19T12:36:39;9.27;;;7.25;;
40653;SDS011;26344;45.532;9.232;2023-02-19T12:39:20;9.75;;;7.13;;
40653;SDS011;26344;45.532;9.232;2023-02-19T12:44:23;10.93;;;7.50;;
40653;SDS011;26344;45.532;9.232;2023-02-19T12:47:02;8.90;;;7.25;;
40653;SDS011;26344;45.532;9.232;2023-02-19T12:49:32;13.40;;;7.57;;
40653;SDS011;26344;45.532;9.232;2023-02-19T12:52:02;9.95;;;7.35;;
40653;SDS011;26344;45.532;9.232;2023-02-19T12:54:37;9.95;;;7.18;;
40653;SDS011;26344;45.532;9.232;2023-02-19T12:57:12;8.40;;;6.43;;
40653;SDS011;26344;45.532;9.232;2023-02-19T13:02:23;11.23;;;7.57;;
40653;SDS011;26344;45.532;9.232;2023-02-19T13:10:21;12.63;;;7.65;;
40653;SDS011;26344;45.532;9.232;2023-02-19T13:12:51;13.15;;;7.40;;
40653;SDS011;26344;45.532;9.232;2023-02-19T13:15:37;8.57;;;6.72;;
40653;SDS011;26344;45.532;9.232;2023-02-19T13:18:16;9.93;;;6.72;;
40653;SDS011;26344;45.532;9.232;2023-02-19T13:20:45;8.93;;;7.00;;
40653;SDS011;26344;45.532;9.232;2023-02-19T13:28:47;9.73;;;6.35;;
40653;SDS011;26344;45.532;9.232;2023-02-19T13:31:19;7.55;;;5.95;;
40653;SDS011;26344;45.532;9.232;2023-02-19T13:36:34;8.88;;;6.03;;
40653;SDS011;26344;45.532;9.232;2023-02-19T13:39:03;8.48;;;6.20;;
40653;SDS011;26344;45.532;9.232;2023-02-19T13:41:30;8.45;;;6.25;;
40653;SDS011;26344;45.532;9.232;2023-02-19T13:43:59;7.50;;;6.07;;
40653;SDS011;26344;45.532;9.232;2023-02-19T13:51:38;9.38;;;6.55;;
40653;SDS011;26344;45.532;9.232;2023-02-19T13:54:27;9.15;;;6.38;;
40653;SDS011;26344;45.532;9.232;2023-02-19T13:59:46;7.50;;;6.13;;
40653;SDS011;26344;45.532;9.232;2023-02-19T14:02:23;9.05;;;6.05;;
40653;SDS011;26344;45.532;9.232;2023-02-19T14:09:45;7.43;;;6.15;;
40653;SDS011;26344;45.532;9.232;2023-02-19T14:17:25;9.05;;;6.25;;
40653;SDS011;26344;45.532;9.232;2023-02-19T14:27:59;7.72;;;5.57;;
40653;SDS011;26344;45.532;9.232;2023-02-19T14:30:25;7.78;;;5.53;;
40653;SDS011;26344;45.532;9.232;2023-02-19T14:32:52;10.63;;;6.10;;
40653;SDS011;26344;45.532;9.232;2023-02-19T14:35:18;8.40;;;6.28;;
40653;SDS011;26344;45.532;9.232;2023-02-19T14:37:45;7.68;;;5.45;;
40653;SDS011;26344;45.532;9.232;2023-02-19T14:40:16;7.05;;;5.32;;
40653;SDS011;26344;45.532;9.232;2023-02-19T14:42:45;7.68;;;5.68;;
40653;SDS011;26344;45.532;9.232;2023-02-19T14:45:12;7.72;;;5.40;;
40653;SDS011;26344;45.532;9.232;2023-02-19T14:47:40;7.50;;;5.35;;
40653;SDS011;26344;45.532;9.232;2023-02-19T14:50:11;8.98;;;5.43;;
40653;SDS011;26344;45.532;9.232;2023-02-19T14:52:44;9.18;;;5.57;;
40653;SDS011;26344;45.532;9.232;2023-02-19T14:57:39;7.45;;;5.82;;
40653;SDS011;26344;45.532;9.232;2023-02-19T15:02:47;7.80;;;5.50;;
40653;SDS011;26344;45.532;9.232;2023-02-19T15:05:15;8.07;;;5.70;;
40653;SDS011;26344;45.532;9.232;2023-02-19T15:07:41;6.85;;;5.80;;
40653;SDS011;26344;45.532;9.232;2023-02-19T15:10:07;7.82;;;5.72;;
40653;SDS011;26344;45.532;9.232;2023-02-19T15:12:34;7.18;;;5.75;;
40653;SDS011;26344;45.532;9.232;2023-02-19T15:15:04;7.15;;;5.47;;
40653;SDS011;26344;45.532;9.232;2023-02-19T15:17:31;10.55;;;6.15;;
40653;SDS011;26344;45.532;9.232;2023-02-19T15:20:07;13.98;;;5.40;;
40653;SDS011;26344;45.532;9.232;2023-02-19T15:22:34;8.65;;;5.85;;
40653;SDS011;26344;45.532;9.232;2023-02-19T15:25:04;7.55;;;5.47;;
40653;SDS011;26344;45.532;9.232;2023-02-19T15:27:30;7.53;;;5.68;;
40653;SDS011;26344;45.532;9.232;2023-02-19T15:30:01;10.93;;;6.57;;
40653;SDS011;26344;45.532;9.232;2023-02-19T15:32:27;8.52;;;6.25;;
40653;SDS011;26344;45.532;9.232;2023-02-19T15:34:57;9.73;;;5.88;;
40653;SDS011;26344;45.532;9.232;2023-02-19T15:37:25;9.63;;;6.07;;
40653;SDS011;26344;45.532;9.232;2023-02-19T15:39:52;10.68;;;5.75;;
40653;SDS011;26344;45.532;9.232;2023-02-19T15:42:22;9.77;;;5.82;;
40653;SDS011;26344;45.532;9.232;2023-02-19T15:47:44;8.60;;;6.07;;
40653;SDS011;26344;45.532;9.232;2023-02-19T15:50:14;10.75;;;5.80;;
40653;SDS011;26344;45.532;9.232;2023-02-19T15:52:48;8.65;;;5.95;;
40653;SDS011;26344;45.532;9.232;2023-02-19T15:57:55;9.77;;;6.00;;
40653;SDS011;26344;45.532;9.232;2023-02-19T16:00:25;10.93;;;5.32;;
40653;SDS011;26344;45.532;9.232;2023-02-19T16:02:55;12.05;;;6.18;;
40653;SDS011;26344;45.532;9.232;2023-02-19T16:05:25;10.40;;;6.07;;
40653;SDS011;26344;45.532;9.232;2023-02-19T16:08:14;11.98;;;7.00;;
40653;SDS011;26344;45.532;9.232;2023-02-19T16:10:50;13.20;;;6.45;;
40653;SDS011;26344;45.532;9.232;2023-02-19T16:13:21;8.20;;;5.93;;
40653;SDS011;26344;45.532;9.232;2023-02-19T16:16:01;11.82;;;6.45;;
40653;SDS011;26344;45.532;9.232;2023-02-19T16:19:03;13.45;;;7.20;;
40653;SDS011;26344;45.532;9.232;2023-02-19T16:48:22;9.90;;;7.15;;
40653;SDS011;26344;45.532;9.232;2023-02-19T16:50:55;9.95;;;6.80;;
40653;SDS011;26344;45.532;9.232;2023-02-19T16:53:56;9.02;;;6.53;;
40653;SDS011;26344;45.532;9.232;2023-02-19T16:56:43;8.57;;;6.68;;
40653;SDS011;26344;45.532;9.232;2023-02-19T16:59:30;9.95;;;7.00;;
40653;SDS011;26344;45.532;9.232;2023-02-19T17:01:58;11.05;;;7.72;;
40653;SDS011;26344;45.532;9.232;2023-02-19T17:04:46;12.70;;;8.48;;
40653;SDS011;26344;45.532;9.232;2023-02-19T17:07:31;10.88;;;6.97;;
40653;SDS011;26344;45.532;9.232;2023-02-19T17:09:57;9.95;;;7.03;;
40653;SDS011;26344;45.532;9.232;2023-02-19T17:12:29;10.57;;;7.60;;
40653;SDS011;26344;45.532;9.232;2023-02-19T17:18:17;12.15;;;7.78;;
40653;SDS011;26344;45.532;9.232;2023-02-19T17:27:13;20.25;;;10.57;;
40653;SDS011;26344;45.532;9.232;2023-02-19T17:42:16;12.02;;;8.35;;
40653;SDS011;26344;45.532;9.232;2023-02-19T17:44:53;14.10;;;8.50;;
40653;SDS011;26344;45.532;9.232;2023-02-19T17:47:39;14.52;;;9.45;;
40653;SDS011;26344;45.532;9.232;2023-02-19T17:59:38;13.43;;;9.43;;
40653;SDS011;26344;45.532;9.232;2023-02-19T18:02:12;14.50;;;9.18;;
40653;SDS011;26344;45.532;9.232;2023-02-19T18:04:38;11.88;;;9.07;;
40653;SDS011;26344;45.532;9.232;2023-02-19T18:07:04;15.57;;;9.30;;
40653;SDS011;26344;45.532;9.232;2023-02-19T18:09:30;14.93;;;9.48;;
40653;SDS011;26344;45.532;9.232;2023-02-19T18:11:56;15.40;;;9.80;;